sensor_id;sensor_type;location;lat;lon;timestamp;P1;durP1;ratioP1;P2;durP2;ratioP2
26654;SDS011;14278;50.784;4.630;2024-02-26T00:02:17;0.40;;;0.40;;
26654;SDS011;14278;50.784;4.630;2024-02-26T00:04:43;0.90;;;0.90;;
26654;SDS011;14278;50.784;4.630;2024-02-26T00:07:10;0.70;;;0.70;;
26654;SDS011;14278;50.784;4.630;2024-02-26T00:09:48;1.43;;;0.73;;
26654;SDS011;14278;50.784;4.630;2024-02-26T00:12:16;1.27;;;1.17;;
26654;SDS011;14278;50.784;4.630;2024-02-26T00:14:46;0.80;;;0.80;;
26654;SDS011;14278;50.784;4.630;2024-02-26T00:17:15;0.53;;;0.53;;
26654;SDS011;14278;50.784;4.630;2024-02-26T00:19:42;1.30;;;1.20;;
26654;SDS011;14278;50.784;4.630;2024-02-26T00:22:07;0.90;;;0.77;;
26654;SDS011;14278;50.784;4.630;2024-02-26T00:24:36;1.03;;;0.93;;
26654;SDS011;14278;50.784;4.630;2024-02-26T00:27:02;1.30;;;1.20;;
26654;SDS011;14278;50.784;4.630;2024-02-26T00:29:28;0.90;;;0.70;;
26654;SDS011;14278;50.784;4.630;2024-02-26T00:31:54;0.73;;;0.67;;
26654;SDS011;14278;50.784;4.630;2024-02-26T00:34:20;1.83;;;1.00;;
26654;SDS011;14278;50.784;4.630;2024-02-26T00:36:46;1.30;;;0.60;;
26654;SDS011;14278;50.784;4.630;2024-02-26T00:39:12;1.83;;;0.90;;
26654;SDS011;14278;50.784;4.630;2024-02-26T00:41:38;0.90;;;0.80;;
26654;SDS011;14278;50.784;4.630;2024-02-26T00:44:11;0.73;;;0.73;;
26654;SDS011;14278;50.784;4.630;2024-02-26T00:46:58;2.10;;;0.93;;
26654;SDS011;14278;50.784;4.630;2024-02-26T00:49:23;3.37;;;0.60;;
26654;SDS011;14278;50.784;4.630;2024-02-26T00:51:53;0.40;;;0.40;;
26654;SDS011;14278;50.784;4.630;2024-02-26T00:54:18;1.37;;;0.63;;
26654;SDS011;14278;50.784;4.630;2024-02-26T00:56:44;1.13;;;0.83;;
26654;SDS011;14278;50.784;4.630;2024-02-26T00:59:10;0.87;;;0.60;;
26654;SDS011;14278;50.784;4.630;2024-02-26T01:01:35;1.03;;;0.73;;
26654;SDS011;14278;50.784;4.630;2024-02-26T01:04:01;0.93;;;0.90;;
26654;SDS011;14278;50.784;4.630;2024-02-26T01:06:28;1.00;;;0.77;;
26654;SDS011;14278;50.784;4.630;2024-02-26T01:08:53;2.27;;;0.83;;
26654;SDS011;14278;50.784;4.630;2024-02-26T01:11:19;0.80;;;0.80;;
26654;SDS011;14278;50.784;4.630;2024-02-26T01:13:45;0.80;;;0.80;;
26654;SDS011;14278;50.784;4.630;2024-02-26T01:16:11;0.87;;;0.87;;
26654;SDS011;14278;50.784;4.630;2024-02-26T01:18:38;1.33;;;1.10;;
26654;SDS011;14278;50.784;4.630;2024-02-26T01:21:05;2.40;;;0.80;;
26654;SDS011;14278;50.784;4.630;2024-02-26T01:23:53;0.73;;;0.73;;
26654;SDS011;14278;50.784;4.630;2024-02-26T01:26:18;1.30;;;0.80;;
26654;SDS011;14278;50.784;4.630;2024-02-26T01:28:44;1.83;;;0.90;;
26654;SDS011;14278;50.784;4.630;2024-02-26T01:31:10;1.13;;;0.90;;
26654;SDS011;14278;50.784;4.630;2024-02-26T01:33:36;1.73;;;1.03;;
26654;SDS011;14278;50.784;4.630;2024-02-26T01:36:01;1.13;;;0.93;;
26654;SDS011;14278;50.784;4.630;2024-02-26T01:38:27;0.80;;;0.80;;
26654;SDS011;14278;50.784;4.630;2024-02-26T01:41:00;0.90;;;0.73;;
26654;SDS011;14278;50.784;4.630;2024-02-26T01:43:42;2.50;;;0.80;;
26654;SDS011;14278;50.784;4.630;2024-02-26T01:46:11;1.37;;;0.50;;
26654;SDS011;14278;50.784;4.630;2024-02-26T01:48:41;0.80;;;0.80;;
26654;SDS011;14278;50.784;4.630;2024-02-26T01:51:08;0.93;;;0.87;;
26654;SDS011;14278;50.784;4.630;2024-02-26T01:53:35;1.90;;;1.07;;
26654;SDS011;14278;50.784;4.630;2024-02-26T01:56:01;0.90;;;0.80;;
26654;SDS011;14278;50.784;4.630;2024-02-26T01:58:27;0.67;;;0.63;;
26654;SDS011;14278;50.784;4.630;2024-02-26T02:00:55;0.70;;;0.60;;
26654;SDS011;14278;50.784;4.630;2024-02-26T02:03:21;2.23;;;0.83;;
26654;SDS011;14278;50.784;4.630;2024-02-26T02:05:48;0.80;;;0.60;;
26654;SDS011;14278;50.784;4.630;2024-02-26T02:08:14;0.70;;;0.60;;
26654;SDS011;14278;50.784;4.630;2024-02-26T02:10:40;1.07;;;0.73;;
26654;SDS011;14278;50.784;4.630;2024-02-26T02:13:07;0.97;;;0.80;;
26654;SDS011;14278;50.784;4.630;2024-02-26T02:15:33;0.87;;;0.60;;
26654;SDS011;14278;50.784;4.630;2024-02-26T02:17:59;0.97;;;0.80;;
26654;SDS011;14278;50.784;4.630;2024-02-26T02:20:26;1.10;;;0.80;;
26654;SDS011;14278;50.784;4.630;2024-02-26T02:22:58;0.43;;;0.43;;
26654;SDS011;14278;50.784;4.630;2024-02-26T02:25:23;3.77;;;0.80;;
26654;SDS011;14278;50.784;4.630;2024-02-26T02:27:56;0.80;;;0.70;;
26654;SDS011;14278;50.784;4.630;2024-02-26T02:30:43;0.80;;;0.70;;
26654;SDS011;14278;50.784;4.630;2024-02-26T02:33:09;0.60;;;0.57;;
26654;SDS011;14278;50.784;4.630;2024-02-26T02:35:36;0.53;;;0.53;;
26654;SDS011;14278;50.784;4.630;2024-02-26T02:38:02;0.90;;;0.90;;
26654;SDS011;14278;50.784;4.630;2024-02-26T02:40:30;0.50;;;0.50;;
26654;SDS011;14278;50.784;4.630;2024-02-26T02:48:33;0.70;;;0.70;;
26654;SDS011;14278;50.784;4.630;2024-02-26T02:51:12;0.67;;;0.63;;
26654;SDS011;14278;50.784;4.630;2024-02-26T02:53:37;0.40;;;0.40;;
26654;SDS011;14278;50.784;4.630;2024-02-26T02:58:36;0.50;;;0.50;;
26654;SDS011;14278;50.784;4.630;2024-02-26T03:01:02;1.20;;;0.60;;
26654;SDS011;14278;50.784;4.630;2024-02-26T03:03:28;0.43;;;0.43;;
26654;SDS011;14278;50.784;4.630;2024-02-26T03:06:17;0.50;;;0.50;;
26654;SDS011;14278;50.784;4.630;2024-02-26T03:08:49;0.97;;;0.60;;
26654;SDS011;14278;50.784;4.630;2024-02-26T03:26:24;1.20;;;0.70;;
26654;SDS011;14278;50.784;4.630;2024-02-26T03:28:50;1.00;;;0.73;;
26654;SDS011;14278;50.784;4.630;2024-02-26T03:36:35;0.70;;;0.70;;
26654;SDS011;14278;50.784;4.630;2024-02-26T03:47:10;0.80;;;0.80;;
26654;SDS011;14278;50.784;4.630;2024-02-26T03:49:35;0.70;;;0.70;;
26654;SDS011;14278;50.784;4.630;2024-02-26T03:59:49;1.10;;;0.80;;
26654;SDS011;14278;50.784;4.630;2024-02-26T04:04:50;1.10;;;0.97;;
26654;SDS011;14278;50.784;4.630;2024-02-26T04:12:27;0.83;;;0.83;;
26654;SDS011;14278;50.784;4.630;2024-02-26T04:20:03;2.07;;;1.33;;
26654;SDS011;14278;50.784;4.630;2024-02-26T04:25:08;1.97;;;1.40;;
26654;SDS011;14278;50.784;4.630;2024-02-26T04:27:35;0.83;;;0.83;;
26654;SDS011;14278;50.784;4.630;2024-02-26T04:30:01;2.53;;;1.83;;
26654;SDS011;14278;50.784;4.630;2024-02-26T04:32:29;2.90;;;1.33;;
26654;SDS011;14278;50.784;4.630;2024-02-26T04:34:54;1.20;;;1.07;;
26654;SDS011;14278;50.784;4.630;2024-02-26T04:37:20;1.83;;;1.20;;
26654;SDS011;14278;50.784;4.630;2024-02-26T04:39:46;0.90;;;0.90;;
26654;SDS011;14278;50.784;4.630;2024-02-26T04:42:11;1.93;;;1.17;;
26654;SDS011;14278;50.784;4.630;2024-02-26T04:44:40;1.67;;;1.57;;
26654;SDS011;14278;50.784;4.630;2024-02-26T04:52:22;2.40;;;1.83;;
26654;SDS011;14278;50.784;4.630;2024-02-26T04:54:48;3.27;;;1.63;;
26654;SDS011;14278;50.784;4.630;2024-02-26T04:57:14;1.57;;;1.13;;
26654;SDS011;14278;50.784;4.630;2024-02-26T04:59:39;2.07;;;1.47;;
26654;SDS011;14278;50.784;4.630;2024-02-26T05:02:07;1.80;;;1.27;;
26654;SDS011;14278;50.784;4.630;2024-02-26T05:04:33;2.33;;;1.30;;
26654;SDS011;14278;50.784;4.630;2024-02-26T05:06:58;1.87;;;1.53;;
26654;SDS011;14278;50.784;4.630;2024-02-26T05:09:24;1.93;;;1.70;;
26654;SDS011;14278;50.784;4.630;2024-02-26T05:11:50;1.57;;;1.47;;
26654;SDS011;14278;50.784;4.630;2024-02-26T05:14:15;2.03;;;1.43;;
26654;SDS011;14278;50.784;4.630;2024-02-26T05:16:41;1.90;;;1.27;;
26654;SDS011;14278;50.784;4.630;2024-02-26T05:21:44;1.73;;;1.60;;
26654;SDS011;14278;50.784;4.630;2024-02-26T05:24:12;3.37;;;2.30;;
26654;SDS011;14278;50.784;4.630;2024-02-26T05:26:40;3.40;;;2.10;;
26654;SDS011;14278;50.784;4.630;2024-02-26T05:31:42;3.83;;;2.63;;
26654;SDS011;14278;50.784;4.630;2024-02-26T05:34:08;3.50;;;2.57;;
26654;SDS011;14278;50.784;4.630;2024-02-26T05:36:33;4.43;;;2.33;;
26654;SDS011;14278;50.784;4.630;2024-02-26T05:39:02;1.40;;;1.30;;
26654;SDS011;14278;50.784;4.630;2024-02-26T05:43:59;5.17;;;2.57;;
26654;SDS011;14278;50.784;4.630;2024-02-26T05:46:25;1.87;;;1.77;;
26654;SDS011;14278;50.784;4.630;2024-02-26T05:54:03;4.77;;;2.83;;
26654;SDS011;14278;50.784;4.630;2024-02-26T05:56:28;1.93;;;1.03;;
26654;SDS011;14278;50.784;4.630;2024-02-26T05:58:54;2.03;;;1.60;;
26654;SDS011;14278;50.784;4.630;2024-02-26T06:09:13;6.90;;;2.83;;
26654;SDS011;14278;50.784;4.630;2024-02-26T06:11:39;2.27;;;2.07;;
26654;SDS011;14278;50.784;4.630;2024-02-26T06:14:04;20.23;;;8.93;;
26654;SDS011;14278;50.784;4.630;2024-02-26T06:16:30;6.83;;;5.23;;
26654;SDS011;14278;50.784;4.630;2024-02-26T06:21:31;5.40;;;3.07;;
26654;SDS011;14278;50.784;4.630;2024-02-26T06:23:57;3.60;;;2.90;;
26654;SDS011;14278;50.784;4.630;2024-02-26T06:26:24;3.67;;;2.60;;
26654;SDS011;14278;50.784;4.630;2024-02-26T06:31:33;6.20;;;2.83;;
26654;SDS011;14278;50.784;4.630;2024-02-26T06:34:05;4.00;;;1.90;;
26654;SDS011;14278;50.784;4.630;2024-02-26T06:39:00;3.63;;;2.23;;
26654;SDS011;14278;50.784;4.630;2024-02-26T06:41:26;3.33;;;2.53;;
26654;SDS011;14278;50.784;4.630;2024-02-26T06:43:54;4.33;;;2.73;;
26654;SDS011;14278;50.784;4.630;2024-02-26T06:46:20;4.20;;;2.87;;
26654;SDS011;14278;50.784;4.630;2024-02-26T06:48:47;5.97;;;3.73;;
26654;SDS011;14278;50.784;4.630;2024-02-26T06:51:13;6.93;;;2.83;;
26654;SDS011;14278;50.784;4.630;2024-02-26T06:56:14;5.13;;;2.90;;
26654;SDS011;14278;50.784;4.630;2024-02-26T06:58:40;5.87;;;3.90;;
26654;SDS011;14278;50.784;4.630;2024-02-26T07:01:05;5.10;;;3.93;;
26654;SDS011;14278;50.784;4.630;2024-02-26T07:03:34;5.70;;;4.30;;
26654;SDS011;14278;50.784;4.630;2024-02-26T07:05:59;5.63;;;4.23;;
26654;SDS011;14278;50.784;4.630;2024-02-26T07:08:25;4.83;;;3.53;;
26654;SDS011;14278;50.784;4.630;2024-02-26T07:10:51;3.90;;;3.50;;
26654;SDS011;14278;50.784;4.630;2024-02-26T07:13:17;6.73;;;4.00;;
26654;SDS011;14278;50.784;4.630;2024-02-26T07:15:42;3.50;;;2.93;;
26654;SDS011;14278;50.784;4.630;2024-02-26T07:18:08;5.27;;;4.10;;
26654;SDS011;14278;50.784;4.630;2024-02-26T07:20:35;5.43;;;4.20;;
26654;SDS011;14278;50.784;4.630;2024-02-26T07:25:36;6.60;;;4.13;;
26654;SDS011;14278;50.784;4.630;2024-02-26T07:28:03;4.90;;;3.67;;
26654;SDS011;14278;50.784;4.630;2024-02-26T07:30:29;6.37;;;4.20;;
26654;SDS011;14278;50.784;4.630;2024-02-26T07:32:57;7.53;;;5.10;;
26654;SDS011;14278;50.784;4.630;2024-02-26T07:37:58;6.57;;;4.23;;
26654;SDS011;14278;50.784;4.630;2024-02-26T07:43:08;5.77;;;3.63;;
26654;SDS011;14278;50.784;4.630;2024-02-26T07:48:14;7.80;;;5.27;;
26654;SDS011;14278;50.784;4.630;2024-02-26T07:50:46;7.23;;;4.50;;
26654;SDS011;14278;50.784;4.630;2024-02-26T07:55:47;4.63;;;4.07;;
26654;SDS011;14278;50.784;4.630;2024-02-26T07:58:13;8.37;;;4.20;;
26654;SDS011;14278;50.784;4.630;2024-02-26T08:00:39;8.87;;;4.23;;
26654;SDS011;14278;50.784;4.630;2024-02-26T08:03:16;5.37;;;3.33;;
26654;SDS011;14278;50.784;4.630;2024-02-26T08:05:41;4.63;;;3.67;;
26654;SDS011;14278;50.784;4.630;2024-02-26T08:10:43;6.87;;;3.60;;
26654;SDS011;14278;50.784;4.630;2024-02-26T08:13:09;8.13;;;4.47;;
26654;SDS011;14278;50.784;4.630;2024-02-26T08:15:35;6.30;;;3.93;;
26654;SDS011;14278;50.784;4.630;2024-02-26T08:18:02;4.27;;;3.63;;
26654;SDS011;14278;50.784;4.630;2024-02-26T08:20:28;8.53;;;5.50;;
26654;SDS011;14278;50.784;4.630;2024-02-26T08:22:55;8.20;;;4.80;;
26654;SDS011;14278;50.784;4.630;2024-02-26T08:25:21;8.10;;;4.60;;
26654;SDS011;14278;50.784;4.630;2024-02-26T08:27:47;3.03;;;2.20;;
26654;SDS011;14278;50.784;4.630;2024-02-26T08:30:13;7.43;;;3.77;;
26654;SDS011;14278;50.784;4.630;2024-02-26T08:32:42;4.60;;;3.53;;
26654;SDS011;14278;50.784;4.630;2024-02-26T08:35:08;6.03;;;3.67;;
26654;SDS011;14278;50.784;4.630;2024-02-26T08:37:34;7.40;;;4.63;;
26654;SDS011;14278;50.784;4.630;2024-02-26T08:40:03;6.13;;;4.60;;
26654;SDS011;14278;50.784;4.630;2024-02-26T08:42:29;6.30;;;4.80;;
26654;SDS011;14278;50.784;4.630;2024-02-26T08:44:55;8.57;;;4.53;;
26654;SDS011;14278;50.784;4.630;2024-02-26T08:47:21;8.33;;;5.43;;
26654;SDS011;14278;50.784;4.630;2024-02-26T08:49:46;5.03;;;3.60;;
26654;SDS011;14278;50.784;4.630;2024-02-26T08:52:12;6.20;;;3.57;;
26654;SDS011;14278;50.784;4.630;2024-02-26T08:57:14;4.97;;;3.83;;
26654;SDS011;14278;50.784;4.630;2024-02-26T08:59:39;6.47;;;4.03;;
26654;SDS011;14278;50.784;4.630;2024-02-26T09:02:05;5.67;;;3.53;;
26654;SDS011;14278;50.784;4.630;2024-02-26T09:04:31;4.10;;;3.67;;
26654;SDS011;14278;50.784;4.630;2024-02-26T09:14:37;5.90;;;4.07;;
26654;SDS011;14278;50.784;4.630;2024-02-26T09:17:03;3.93;;;2.63;;
26654;SDS011;14278;50.784;4.630;2024-02-26T09:19:30;7.93;;;3.97;;
26654;SDS011;14278;50.784;4.630;2024-02-26T09:21:56;5.80;;;4.07;;
26654;SDS011;14278;50.784;4.630;2024-02-26T09:24:23;5.40;;;3.07;;
26654;SDS011;14278;50.784;4.630;2024-02-26T09:29:23;4.17;;;3.13;;
26654;SDS011;14278;50.784;4.630;2024-02-26T09:31:51;5.33;;;4.07;;
26654;SDS011;14278;50.784;4.630;2024-02-26T09:34:17;6.43;;;4.63;;
26654;SDS011;14278;50.784;4.630;2024-02-26T09:36:43;7.60;;;4.23;;
26654;SDS011;14278;50.784;4.630;2024-02-26T09:39:08;4.87;;;3.37;;
26654;SDS011;14278;50.784;4.630;2024-02-26T09:41:36;7.43;;;4.17;;
26654;SDS011;14278;50.784;4.630;2024-02-26T09:44:02;9.43;;;4.73;;
26654;SDS011;14278;50.784;4.630;2024-02-26T09:46:30;4.67;;;3.57;;
26654;SDS011;14278;50.784;4.630;2024-02-26T09:48:56;3.53;;;2.33;;
26654;SDS011;14278;50.784;4.630;2024-02-26T09:51:22;6.83;;;3.83;;
26654;SDS011;14278;50.784;4.630;2024-02-26T09:53:51;3.50;;;2.07;;
26654;SDS011;14278;50.784;4.630;2024-02-26T09:56:17;5.90;;;3.90;;
26654;SDS011;14278;50.784;4.630;2024-02-26T09:58:43;6.03;;;3.27;;
26654;SDS011;14278;50.784;4.630;2024-02-26T10:01:13;6.67;;;4.90;;
26654;SDS011;14278;50.784;4.630;2024-02-26T10:03:42;5.83;;;4.17;;
26654;SDS011;14278;50.784;4.630;2024-02-26T10:06:10;6.53;;;3.80;;
26654;SDS011;14278;50.784;4.630;2024-02-26T10:08:36;6.07;;;3.37;;
26654;SDS011;14278;50.784;4.630;2024-02-26T10:11:08;5.90;;;4.50;;
26654;SDS011;14278;50.784;4.630;2024-02-26T10:13:35;7.30;;;4.67;;
26654;SDS011;14278;50.784;4.630;2024-02-26T10:16:01;7.60;;;4.87;;
26654;SDS011;14278;50.784;4.630;2024-02-26T10:18:44;10.13;;;4.27;;
26654;SDS011;14278;50.784;4.630;2024-02-26T10:21:15;3.43;;;2.00;;
26654;SDS011;14278;50.784;4.630;2024-02-26T10:23:42;3.37;;;2.77;;
26654;SDS011;14278;50.784;4.630;2024-02-26T10:26:12;6.03;;;4.10;;
26654;SDS011;14278;50.784;4.630;2024-02-26T10:28:39;4.80;;;3.57;;
26654;SDS011;14278;50.784;4.630;2024-02-26T10:31:05;3.00;;;2.70;;
26654;SDS011;14278;50.784;4.630;2024-02-26T10:33:38;4.27;;;2.90;;
26654;SDS011;14278;50.784;4.630;2024-02-26T10:36:04;5.57;;;2.90;;
26654;SDS011;14278;50.784;4.630;2024-02-26T10:38:37;3.70;;;2.80;;
26654;SDS011;14278;50.784;4.630;2024-02-26T10:41:03;9.40;;;4.23;;
26654;SDS011;14278;50.784;4.630;2024-02-26T10:43:31;2.60;;;2.40;;
26654;SDS011;14278;50.784;4.630;2024-02-26T10:45:57;5.63;;;3.80;;
26654;SDS011;14278;50.784;4.630;2024-02-26T10:48:23;4.57;;;3.60;;
26654;SDS011;14278;50.784;4.630;2024-02-26T10:50:49;3.13;;;2.73;;
26654;SDS011;14278;50.784;4.630;2024-02-26T10:53:26;5.47;;;3.47;;
26654;SDS011;14278;50.784;4.630;2024-02-26T10:55:55;6.27;;;3.63;;
26654;SDS011;14278;50.784;4.630;2024-02-26T10:58:24;4.67;;;4.07;;
26654;SDS011;14278;50.784;4.630;2024-02-26T11:00:51;3.67;;;2.67;;
26654;SDS011;14278;50.784;4.630;2024-02-26T11:03:18;6.77;;;3.63;;
26654;SDS011;14278;50.784;4.630;2024-02-26T11:05:48;6.03;;;4.00;;
26654;SDS011;14278;50.784;4.630;2024-02-26T11:08:15;6.87;;;4.00;;
26654;SDS011;14278;50.784;4.630;2024-02-26T11:10:50;6.90;;;3.53;;
26654;SDS011;14278;50.784;4.630;2024-02-26T11:13:18;3.27;;;2.97;;
26654;SDS011;14278;50.784;4.630;2024-02-26T11:15:48;4.97;;;4.17;;
26654;SDS011;14278;50.784;4.630;2024-02-26T11:18:15;5.77;;;3.97;;
26654;SDS011;14278;50.784;4.630;2024-02-26T11:20:44;6.97;;;4.73;;
26654;SDS011;14278;50.784;4.630;2024-02-26T11:23:13;6.67;;;3.50;;
26654;SDS011;14278;50.784;4.630;2024-02-26T11:25:40;3.93;;;3.50;;
26654;SDS011;14278;50.784;4.630;2024-02-26T11:28:07;5.70;;;3.77;;
26654;SDS011;14278;50.784;4.630;2024-02-26T11:30:38;6.40;;;3.40;;
26654;SDS011;14278;50.784;4.630;2024-02-26T11:33:09;3.20;;;2.10;;
26654;SDS011;14278;50.784;4.630;2024-02-26T11:35:37;6.57;;;3.93;;
26654;SDS011;14278;50.784;4.630;2024-02-26T11:38:03;6.03;;;3.47;;
26654;SDS011;14278;50.784;4.630;2024-02-26T11:40:31;4.70;;;3.33;;
26654;SDS011;14278;50.784;4.630;2024-02-26T11:42:58;3.40;;;3.00;;
26654;SDS011;14278;50.784;4.630;2024-02-26T11:48:11;5.13;;;3.63;;
26654;SDS011;14278;50.784;4.630;2024-02-26T11:53:20;6.10;;;3.50;;
26654;SDS011;14278;50.784;4.630;2024-02-26T11:58:44;4.33;;;2.70;;
26654;SDS011;14278;50.784;4.630;2024-02-26T12:04:27;4.73;;;2.97;;
26654;SDS011;14278;50.784;4.630;2024-02-26T12:06:56;4.27;;;3.03;;
26654;SDS011;14278;50.784;4.630;2024-02-26T12:12:03;3.70;;;2.77;;
26654;SDS011;14278;50.784;4.630;2024-02-26T12:14:39;3.73;;;2.37;;
26654;SDS011;14278;50.784;4.630;2024-02-26T12:17:22;5.10;;;3.63;;
26654;SDS011;14278;50.784;4.630;2024-02-26T12:19:52;2.50;;;2.30;;
26654;SDS011;14278;50.784;4.630;2024-02-26T12:22:18;3.07;;;2.77;;
26654;SDS011;14278;50.784;4.630;2024-02-26T12:24:45;4.07;;;2.77;;
26654;SDS011;14278;50.784;4.630;2024-02-26T12:27:10;5.50;;;3.07;;
26654;SDS011;14278;50.784;4.630;2024-02-26T12:29:36;6.90;;;3.43;;
26654;SDS011;14278;50.784;4.630;2024-02-26T12:32:03;3.20;;;2.60;;
26654;SDS011;14278;50.784;4.630;2024-02-26T12:34:30;5.73;;;3.00;;
26654;SDS011;14278;50.784;4.630;2024-02-26T12:36:56;2.07;;;1.87;;
26654;SDS011;14278;50.784;4.630;2024-02-26T12:39:22;3.60;;;2.67;;
26654;SDS011;14278;50.784;4.630;2024-02-26T12:41:48;3.03;;;2.27;;
26654;SDS011;14278;50.784;4.630;2024-02-26T12:44:17;3.60;;;3.07;;
26654;SDS011;14278;50.784;4.630;2024-02-26T12:46:49;3.90;;;3.00;;
26654;SDS011;14278;50.784;4.630;2024-02-26T12:49:15;4.23;;;2.80;;
26654;SDS011;14278;50.784;4.630;2024-02-26T12:51:43;3.03;;;2.23;;
26654;SDS011;14278;50.784;4.630;2024-02-26T12:54:09;4.73;;;3.50;;
26654;SDS011;14278;50.784;4.630;2024-02-26T12:56:35;3.30;;;2.43;;
26654;SDS011;14278;50.784;4.630;2024-02-26T12:59:01;3.37;;;2.53;;
26654;SDS011;14278;50.784;4.630;2024-02-26T13:01:28;2.80;;;2.60;;
26654;SDS011;14278;50.784;4.630;2024-02-26T13:03:55;3.40;;;2.47;;
26654;SDS011;14278;50.784;4.630;2024-02-26T13:06:21;5.73;;;3.07;;
26654;SDS011;14278;50.784;4.630;2024-02-26T13:08:47;4.57;;;3.20;;
26654;SDS011;14278;50.784;4.630;2024-02-26T13:11:13;4.47;;;3.33;;
26654;SDS011;14278;50.784;4.630;2024-02-26T13:13:40;3.03;;;2.33;;
26654;SDS011;14278;50.784;4.630;2024-02-26T13:18:41;5.50;;;3.30;;
26654;SDS011;14278;50.784;4.630;2024-02-26T13:21:11;3.43;;;3.03;;
26654;SDS011;14278;50.784;4.630;2024-02-26T13:29:01;6.17;;;4.30;;
26654;SDS011;14278;50.784;4.630;2024-02-26T13:36:45;5.97;;;3.53;;
26654;SDS011;14278;50.784;4.630;2024-02-26T13:39:11;7.63;;;4.30;;
26654;SDS011;14278;50.784;4.630;2024-02-26T13:41:50;4.77;;;3.67;;
26654;SDS011;14278;50.784;4.630;2024-02-26T13:44:16;5.47;;;4.07;;
26654;SDS011;14278;50.784;4.630;2024-02-26T13:46:42;5.90;;;4.27;;
26654;SDS011;14278;50.784;4.630;2024-02-26T13:49:08;4.80;;;3.30;;
26654;SDS011;14278;50.784;4.630;2024-02-26T13:51:34;4.33;;;3.57;;
26654;SDS011;14278;50.784;4.630;2024-02-26T13:56:39;6.23;;;4.37;;
26654;SDS011;14278;50.784;4.630;2024-02-26T13:59:05;3.73;;;3.43;;
26654;SDS011;14278;50.784;4.630;2024-02-26T14:01:30;4.33;;;3.57;;
26654;SDS011;14278;50.784;4.630;2024-02-26T14:03:58;7.93;;;4.00;;
26654;SDS011;14278;50.784;4.630;2024-02-26T14:06:24;9.20;;;5.13;;
26654;SDS011;14278;50.784;4.630;2024-02-26T14:08:49;7.87;;;4.40;;
26654;SDS011;14278;50.784;4.630;2024-02-26T14:11:15;7.93;;;4.00;;
26654;SDS011;14278;50.784;4.630;2024-02-26T14:13:41;5.73;;;3.60;;
26654;SDS011;14278;50.784;4.630;2024-02-26T14:16:06;7.70;;;4.10;;
26654;SDS011;14278;50.784;4.630;2024-02-26T14:21:07;5.10;;;3.37;;
26654;SDS011;14278;50.784;4.630;2024-02-26T14:23:33;6.63;;;4.47;;
26654;SDS011;14278;50.784;4.630;2024-02-26T14:25:59;7.10;;;4.50;;
26654;SDS011;14278;50.784;4.630;2024-02-26T14:28:26;5.07;;;3.97;;
26654;SDS011;14278;50.784;4.630;2024-02-26T14:30:53;5.77;;;3.90;;
26654;SDS011;14278;50.784;4.630;2024-02-26T14:33:19;9.03;;;5.80;;
26654;SDS011;14278;50.784;4.630;2024-02-26T14:35:44;6.83;;;5.07;;
26654;SDS011;14278;50.784;4.630;2024-02-26T14:38:10;6.13;;;4.37;;
26654;SDS011;14278;50.784;4.630;2024-02-26T14:40:37;5.67;;;4.93;;
26654;SDS011;14278;50.784;4.630;2024-02-26T14:43:03;9.73;;;5.50;;
26654;SDS011;14278;50.784;4.630;2024-02-26T14:45:30;7.10;;;5.10;;
26654;SDS011;14278;50.784;4.630;2024-02-26T14:47:55;9.07;;;5.03;;
26654;SDS011;14278;50.784;4.630;2024-02-26T14:50:21;8.10;;;5.00;;
26654;SDS011;14278;50.784;4.630;2024-02-26T14:52:47;9.70;;;5.77;;
26654;SDS011;14278;50.784;4.630;2024-02-26T14:55:13;8.97;;;6.07;;
26654;SDS011;14278;50.784;4.630;2024-02-26T14:57:38;9.60;;;5.50;;
26654;SDS011;14278;50.784;4.630;2024-02-26T15:00:04;7.00;;;5.47;;
26654;SDS011;14278;50.784;4.630;2024-02-26T15:02:32;7.13;;;4.60;;
26654;SDS011;14278;50.784;4.630;2024-02-26T15:04:57;9.33;;;6.20;;
26654;SDS011;14278;50.784;4.630;2024-02-26T15:07:23;8.27;;;4.80;;
26654;SDS011;14278;50.784;4.630;2024-02-26T15:09:49;11.37;;;5.90;;
26654;SDS011;14278;50.784;4.630;2024-02-26T15:12:21;8.83;;;5.67;;
26654;SDS011;14278;50.784;4.630;2024-02-26T15:14:47;6.70;;;4.97;;
26654;SDS011;14278;50.784;4.630;2024-02-26T15:17:12;8.87;;;5.20;;
26654;SDS011;14278;50.784;4.630;2024-02-26T15:19:38;8.17;;;5.23;;
26654;SDS011;14278;50.784;4.630;2024-02-26T15:22:07;8.97;;;4.80;;
26654;SDS011;14278;50.784;4.630;2024-02-26T15:24:33;9.70;;;5.73;;
26654;SDS011;14278;50.784;4.630;2024-02-26T15:26:58;8.23;;;5.17;;
26654;SDS011;14278;50.784;4.630;2024-02-26T15:29:24;6.00;;;3.80;;
26654;SDS011;14278;50.784;4.630;2024-02-26T15:31:50;8.20;;;4.80;;
26654;SDS011;14278;50.784;4.630;2024-02-26T15:34:15;11.80;;;6.60;;
26654;SDS011;14278;50.784;4.630;2024-02-26T15:36:41;6.67;;;4.83;;
26654;SDS011;14278;50.784;4.630;2024-02-26T15:39:07;11.57;;;4.90;;
26654;SDS011;14278;50.784;4.630;2024-02-26T15:41:32;6.50;;;4.00;;
26654;SDS011;14278;50.784;4.630;2024-02-26T15:43:58;4.97;;;4.00;;
26654;SDS011;14278;50.784;4.630;2024-02-26T15:46:25;9.43;;;4.37;;
26654;SDS011;14278;50.784;4.630;2024-02-26T15:48:51;9.20;;;5.73;;
26654;SDS011;14278;50.784;4.630;2024-02-26T15:51:18;9.60;;;5.10;;
26654;SDS011;14278;50.784;4.630;2024-02-26T15:53:49;7.87;;;4.77;;
26654;SDS011;14278;50.784;4.630;2024-02-26T15:56:15;6.00;;;3.93;;
26654;SDS011;14278;50.784;4.630;2024-02-26T15:58:41;11.27;;;6.07;;
26654;SDS011;14278;50.784;4.630;2024-02-26T16:01:07;9.97;;;5.17;;
26654;SDS011;14278;50.784;4.630;2024-02-26T16:03:39;8.37;;;4.97;;
26654;SDS011;14278;50.784;4.630;2024-02-26T16:06:09;7.10;;;4.23;;
26654;SDS011;14278;50.784;4.630;2024-02-26T16:08:41;10.53;;;5.93;;
26654;SDS011;14278;50.784;4.630;2024-02-26T16:11:07;5.60;;;3.73;;
26654;SDS011;14278;50.784;4.630;2024-02-26T16:13:33;7.90;;;4.27;;
26654;SDS011;14278;50.784;4.630;2024-02-26T16:16:03;5.77;;;4.53;;
26654;SDS011;14278;50.784;4.630;2024-02-26T16:18:32;8.37;;;5.20;;
26654;SDS011;14278;50.784;4.630;2024-02-26T16:20:59;8.37;;;5.13;;
26654;SDS011;14278;50.784;4.630;2024-02-26T16:23:25;9.17;;;4.47;;
26654;SDS011;14278;50.784;4.630;2024-02-26T16:25:51;7.60;;;5.10;;
26654;SDS011;14278;50.784;4.630;2024-02-26T16:28:26;7.80;;;5.20;;
26654;SDS011;14278;50.784;4.630;2024-02-26T16:30:56;8.13;;;3.63;;
26654;SDS011;14278;50.784;4.630;2024-02-26T16:33:21;7.97;;;3.77;;
26654;SDS011;14278;50.784;4.630;2024-02-26T16:35:47;9.27;;;4.57;;
26654;SDS011;14278;50.784;4.630;2024-02-26T16:38:13;7.40;;;3.80;;
26654;SDS011;14278;50.784;4.630;2024-02-26T16:40:42;6.10;;;4.43;;
26654;SDS011;14278;50.784;4.630;2024-02-26T16:43:08;6.10;;;4.20;;
26654;SDS011;14278;50.784;4.630;2024-02-26T16:45:34;3.50;;;2.70;;
26654;SDS011;14278;50.784;4.630;2024-02-26T16:47:59;6.13;;;4.23;;
26654;SDS011;14278;50.784;4.630;2024-02-26T16:50:25;6.60;;;4.37;;
26654;SDS011;14278;50.784;4.630;2024-02-26T16:52:51;4.37;;;2.73;;
26654;SDS011;14278;50.784;4.630;2024-02-26T16:55:17;4.13;;;3.57;;
26654;SDS011;14278;50.784;4.630;2024-02-26T16:57:42;5.27;;;3.47;;
26654;SDS011;14278;50.784;4.630;2024-02-26T17:00:08;6.23;;;4.67;;
26654;SDS011;14278;50.784;4.630;2024-02-26T17:02:37;4.67;;;3.00;;
26654;SDS011;14278;50.784;4.630;2024-02-26T17:05:03;9.43;;;5.00;;
26654;SDS011;14278;50.784;4.630;2024-02-26T17:07:32;7.10;;;4.00;;
26654;SDS011;14278;50.784;4.630;2024-02-26T17:09:58;6.90;;;3.40;;
26654;SDS011;14278;50.784;4.630;2024-02-26T17:12:24;7.00;;;3.23;;
26654;SDS011;14278;50.784;4.630;2024-02-26T17:14:49;6.27;;;4.53;;
26654;SDS011;14278;50.784;4.630;2024-02-26T17:17:16;5.87;;;4.13;;
26654;SDS011;14278;50.784;4.630;2024-02-26T17:19:42;6.90;;;4.40;;
26654;SDS011;14278;50.784;4.630;2024-02-26T17:22:08;8.23;;;4.17;;
26654;SDS011;14278;50.784;4.630;2024-02-26T17:24:36;10.30;;;5.43;;
26654;SDS011;14278;50.784;4.630;2024-02-26T17:27:02;4.50;;;3.53;;